Time;durP1;ratioP1;P1;durP2;ratioP2;P2;SDS_P1;SDS_P2;PMS_P1;PMS_P2;Temp;Humidity;BMP_temperature;BMP_pressure;BME280_temperature;BME280_humidity;BME280_pressure;Samples;Min_cycle;Max_cycle;Signal;HPM_P1;HPM_P2
2021/12/13 00:01:06;;;;;;;52.33;20.20;;;;;;;6.06;100.00;102030.38;4862119;29;20274;-81
2021/12/13 00:04:04;;;;;;;67.45;20.58;;;;;;;6.05;100.00;102035.69;4861645;29;20223;-82
2021/12/13 00:06:37;;;;;;;65.38;20.23;;;;;;;6.05;100.00;102035.69;4844303;29;20186;-82
2021/12/13 00:09:09;;;;;;;52.20;18.85;;;;;;;6.07;100.00;102037.47;4844314;29;20170;-82
2021/12/13 00:11:41;;;;;;;45.72;17.55;;;;;;;6.10;100.00;102036.56;4860639;29;20220;-82
2021/12/13 00:14:12;;;;;;;57.03;18.60;;;;;;;6.08;100.00;102038.34;4859489;29;20186;-83
2021/12/13 00:16:42;;;;;;;58.75;18.10;;;;;;;6.06;100.00;102051.69;4843638;29;20158;-82
2021/12/13 00:19:16;;;;;;;67.10;17.55;;;;;;;6.06;100.00;102042.81;4860789;29;20171;-82
2021/12/13 00:21:45;;;;;;;44.08;16.55;;;;;;;6.09;100.00;102045.47;4859787;29;20747;-82
2021/12/13 00:24:19;;;;;;;39.95;14.48;;;;;;;6.11;100.00;102055.22;4843710;29;20221;-82
2021/12/13 00:26:47;;;;;;;56.33;15.40;;;;;;;6.08;100.00;102059.63;4860145;29;20617;-82
2021/12/13 00:29:20;;;;;;;49.40;14.65;;;;;;;6.04;100.00;102053.44;4843562;29;20186;-81
2021/12/13 00:31:58;;;;;;;37.85;15.05;;;;;;;6.06;100.00;102057.00;4861022;29;20206;-81
2021/12/13 00:34:26;;;;;;;33.40;13.55;;;;;;;6.07;100.00;102053.44;4861223;29;20542;-81
2021/12/13 00:36:56;;;;;;;60.08;14.85;;;;;;;6.01;100.00;102049.88;4861452;29;20273;-81
2021/12/13 00:39:30;;;;;;;52.80;13.75;;;;;;;6.02;100.00;102057.00;4862897;29;20218;-83
2021/12/13 00:41:56;;;;;;;46.10;14.05;;;;;;;6.02;100.00;102055.22;4847335;29;20198;-82
2021/12/13 00:44:26;;;;;;;50.67;13.90;;;;;;;6.01;100.00;102045.44;4865455;29;20193;-81
2021/12/13 00:46:54;;;;;;;54.10;16.42;;;;;;;6.04;100.00;102049.91;4865992;29;20193;-81
2021/12/13 00:49:25;;;;;;;88.10;15.50;;;;;;;5.99;100.00;102057.84;4865687;29;20189;-81
2021/12/13 00:51:56;;;;;;;82.45;14.82;;;;;;;6.00;100.00;102064.97;4850665;29;20194;-80
2021/12/13 00:54:35;;;;;;;62.75;13.88;;;;;;;6.02;100.00;102068.53;4866745;29;20671;-81
2021/12/13 00:57:01;;;;;;;50.20;13.45;;;;;;;6.06;100.00;102064.09;4869254;29;20173;-81
2021/12/13 00:59:39;;;;;;;46.13;14.38;;;;;;;6.05;100.00;102063.19;4869661;29;20253;-81
2021/12/13 01:02:10;;;;;;;48.75;13.45;;;;;;;6.06;100.00;102072.06;4852099;29;20340;-81
2021/12/13 01:04:55;;;;;;;39.30;12.88;;;;;;;6.07;100.00;102077.38;4867204;29;20273;-80
2021/12/13 01:07:32;;;;;;;55.90;13.30;;;;;;;6.07;100.00;102085.34;4871870;29;20644;-81
2021/12/13 01:10:41;;;;;;;45.10;13.82;;;;;;;6.10;100.00;102079.16;4870232;29;20194;-81
2021/12/13 01:13:12;;;;;;;39.20;13.13;;;;;;;6.14;100.00;102071.19;4869004;29;20186;-81
2021/12/13 01:15:50;;;;;;;50.83;14.85;;;;;;;6.14;100.00;102080.94;4868570;29;20171;-80
2021/12/13 01:18:28;;;;;;;32.97;12.55;;;;;;;6.17;100.00;102088.94;4867810;29;20273;-80
2021/12/13 01:21:14;;;;;;;50.47;14.90;;;;;;;6.16;100.00;102092.47;4867806;29;20210;-80
2021/12/13 01:23:47;;;;;;;42.28;13.90;;;;;;;6.19;100.00;102085.38;4865845;29;20181;-80
2021/12/13 01:26:36;;;;;;;70.40;15.18;;;;;;;6.16;100.00;102087.13;4850516;29;20201;-81
2021/12/13 01:29:13;;;;;;;55.53;15.85;;;;;;;6.18;100.00;102080.03;4866526;29;20253;-80
2021/12/13 01:31:50;;;;;;;94.68;15.45;;;;;;;6.16;100.00;102084.47;4851196;29;20703;-80
2021/12/13 01:34:17;;;;;;;45.58;14.57;;;;;;;6.21;100.00;102090.72;4835589;29;20205;-81
2021/12/13 01:36:53;;;;;;;62.03;15.90;;;;;;;6.22;100.00;102083.59;4850819;29;20191;-80
2021/12/13 01:39:22;;;;;;;44.45;13.98;;;;;;;6.23;100.00;102083.63;4850685;29;20242;-80
2021/12/13 01:41:52;;;;;;;65.00;15.32;;;;;;;6.20;100.00;102083.59;4849929;29;20249;-81
2021/12/13 01:44:25;;;;;;;87.38;15.80;;;;;;;6.21;100.00;102080.06;4834028;29;20197;-80
2021/12/13 01:46:57;;;;;;;62.58;15.38;;;;;;;6.23;100.00;102080.03;4851078;29;20187;-81
2021/12/13 01:49:39;;;;;;;137.85;17.65;;;;;;;6.22;100.00;102081.81;4847415;29;20653;-82
2021/12/13 01:52:18;;;;;;;80.38;14.90;;;;;;;6.24;100.00;102092.47;4844356;29;20195;-83
2021/12/13 01:54:44;;;;;;;81.97;15.60;;;;;;;6.27;100.00;102077.38;4828239;29;20204;-83
2021/12/13 02:00:09;;;;;;;45.00;13.90;;;;;;;6.34;100.00;102078.25;4844211;29;20660;-81
2021/12/13 02:02:43;;;;;;;103.13;14.27;;;;;;;6.35;100.00;102072.06;4845016;29;20638;-81
2021/12/13 02:08:10;;;;;;;42.13;12.85;;;;;;;6.36;100.00;102077.41;4924588;23;20225;-81
2021/12/13 02:10:46;;;;;;;153.48;17.40;;;;;;;6.33;100.00;102068.50;4864168;29;20710;-81
2021/12/13 02:13:41;;;;;;;53.83;14.20;;;;;;;6.36;100.00;102071.16;4863480;29;20163;-80
2021/12/13 02:18:57;;;;;;;74.07;15.13;;;;;;;6.40;100.00;102071.16;4852312;29;20189;-79
2021/12/13 02:21:30;;;;;;;67.40;14.57;;;;;;;6.43;100.00;102070.28;4869426;29;20202;-80
2021/12/13 02:24:04;;;;;;;164.60;17.63;;;;;;;6.42;100.00;102076.47;4869413;29;20259;-80
2021/12/13 02:26:33;;;;;;;69.75;14.18;;;;;;;6.44;100.00;102082.69;5066665;24;20683;-81
2021/12/13 02:29:22;;;;;;;82.68;15.15;;;;;;;6.46;100.00;102078.25;4867278;29;20274;-81
2021/12/13 02:31:48;;;;;;;46.85;11.98;;;;;;;6.50;100.00;102082.69;4864316;29;20210;-81
2021/12/13 02:34:18;;;;;;;179.25;19.13;;;;;;;6.46;100.00;102080.91;4862907;29;20258;-81
2021/12/13 02:36:50;;;;;;;38.67;12.68;;;;;;;6.51;100.00;102076.47;4862527;29;20579;-81
2021/12/13 02:39:20;;;;;;;88.45;15.70;;;;;;;6.50;100.00;102081.81;4861550;29;20170;-81
2021/12/13 02:41:47;;;;;;;116.18;17.20;;;;;;;6.52;100.00;102077.38;4860806;29;20201;-81
2021/12/13 02:44:22;;;;;;;81.40;15.65;;;;;;;6.52;100.00;102083.59;4862102;29;20243;-81
2021/12/13 02:46:50;;;;;;;140.57;17.08;;;;;;;6.51;100.00;102079.13;4863160;29;20181;-81
2021/12/13 02:49:17;;;;;;;94.93;16.55;;;;;;;6.54;100.00;102083.59;4864287;29;20170;-80
2021/12/13 02:51:57;;;;;;;98.88;16.45;;;;;;;6.58;100.00;102077.34;4864130;29;20214;-83
2021/12/13 02:54:32;;;;;;;59.67;14.27;;;;;;;6.61;100.00;102080.03;4862308;29;20376;-81
2021/12/13 02:57:02;;;;;;;51.58;13.75;;;;;;;6.65;100.00;102088.88;4861678;29;20178;-81
2021/12/13 02:59:32;;;;;;;94.55;17.08;;;;;;;6.57;100.00;102079.13;4876593;29;20264;-81
2021/12/13 03:02:11;;;;;;;65.25;15.90;;;;;;;6.65;100.00;102079.13;4862599;29;20205;-80
2021/12/13 03:04:38;;;;;;;72.35;16.90;;;;;;;6.66;100.00;102080.00;4863094;29;20558;-81
2021/12/13 03:07:11;;;;;;;56.67;14.75;;;;;;;6.67;100.00;102077.34;4862513;29;20170;-81
2021/12/13 03:09:42;;;;;;;68.55;15.88;;;;;;;6.65;100.00;102079.13;4846007;29;20594;-82
2021/12/13 03:12:13;;;;;;;52.85;15.55;;;;;;;6.69;100.00;102094.22;4862086;29;20199;-82
2021/12/13 03:14:47;;;;;;;56.97;16.02;;;;;;;6.68;100.00;102089.75;4876327;29;20275;-81
2021/12/13 03:17:23;;;;;;;59.17;16.73;;;;;;;6.70;100.00;102079.13;4875700;29;20181;-82
2021/12/13 03:20:17;;;;;;;52.45;15.30;;;;;;;6.69;100.00;102083.56;4860200;29;20186;-81
2021/12/13 03:23:04;;;;;;;53.90;15.48;;;;;;;6.74;100.00;102087.09;4844694;29;20206;-81
2021/12/13 03:25:53;;;;;;;48.60;14.43;;;;;;;6.74;100.00;102083.56;4860446;29;20186;-82
2021/12/13 03:29:02;;;;;;;50.83;15.20;;;;;;;6.83;100.00;102088.84;4860536;29;20250;-82
2021/12/13 03:31:35;;;;;;;50.25;15.00;;;;;;;6.79;100.00;102090.63;4823591;29;20219;-82
2021/12/13 03:34:11;;;;;;;54.85;15.63;;;;;;;6.79;100.00;102097.72;4824720;29;20172;-82
2021/12/13 03:36:55;;;;;;;59.42;15.25;;;;;;;6.77;100.00;102088.84;4838673;29;20198;-81
2021/12/13 03:39:34;;;;;;;37.85;13.65;;;;;;;6.80;100.00;102083.53;4823252;29;20168;-82
2021/12/13 03:42:05;;;;;;;36.53;13.02;;;;;;;6.87;100.00;102095.06;4822961;29;20306;-82
2021/12/13 03:44:39;;;;;;;45.67;13.82;;;;;;;6.83;100.00;102095.97;4838344;29;20179;-82
2021/12/13 03:47:12;;;;;;;42.45;13.25;;;;;;;6.82;100.00;102095.06;4837719;29;20638;-82
2021/12/13 03:49:46;;;;;;;39.00;13.18;;;;;;;6.85;100.00;102096.84;4837908;29;20202;-83
2021/12/13 03:52:14;;;;;;;37.00;12.90;;;;;;;6.86;100.00;102087.94;4838504;29;20214;-81
2021/12/13 03:54:41;;;;;;;40.72;12.05;;;;;;;6.89;100.00;102098.63;4822670;29;20187;-81
2021/12/13 03:57:07;;;;;;;32.10;12.35;;;;;;;6.88;100.00;102104.81;4824338;29;20178;-81
2021/12/13 03:59:37;;;;;;;35.35;12.35;;;;;;;6.87;100.00;102100.41;4840677;29;20699;-81
2021/12/13 04:02:07;;;;;;;30.25;11.07;;;;;;;6.93;100.00;102103.00;4839898;29;20340;-81
2021/12/13 04:04:55;;;;;;;37.10;12.98;;;;;;;6.92;100.00;102109.25;4838604;29;20183;-81
2021/12/13 04:07:32;;;;;;;34.10;12.57;;;;;;;6.93;100.00;102095.94;4841467;29;20587;-82
2021/12/13 04:10:00;;;;;;;34.60;12.90;;;;;;;6.89;100.00;102107.50;4867087;29;20224;-82
2021/12/13 04:12:36;;;;;;;40.35;13.05;;;;;;;6.92;100.00;102103.94;4863817;29;20231;-82
2021/12/13 04:15:19;;;;;;;45.78;13.32;;;;;;;6.91;100.00;102112.78;4865207;29;20194;-82
2021/12/13 04:17:58;;;;;;;41.00;13.35;;;;;;;6.95;100.00;102112.81;4862510;29;20230;-82
2021/12/13 04:20:36;;;;;;;34.45;13.18;;;;;;;6.99;100.00;102114.53;4864806;29;20151;-81
2021/12/13 04:23:20;;;;;;;37.15;13.23;;;;;;;7.01;100.00;102125.22;4878730;29;20883;-81
2021/12/13 04:25:48;;;;;;;40.15;13.70;;;;;;;7.00;100.00;102124.31;4830482;29;20172;-81
2021/12/13 04:28:31;;;;;;;52.03;15.73;;;;;;;6.97;100.00;102116.31;4860150;29;20202;-81
2021/12/13 04:31:00;;;;;;;51.15;15.45;;;;;;;7.03;100.00;102125.22;4839620;29;20211;-81
2021/12/13 04:33:32;;;;;;;46.45;15.43;;;;;;;7.07;100.00;102132.31;4828265;29;20195;-82
2021/12/13 04:36:02;;;;;;;49.58;15.00;;;;;;;7.11;100.00;102124.31;4828221;29;20180;-81
2021/12/13 04:38:52;;;;;;;54.47;16.30;;;;;;;7.13;100.00;102135.84;4826056;29;20677;-82
2021/12/13 04:41:29;;;;;;;47.50;15.63;;;;;;;7.15;100.00;102131.41;4831751;29;20294;-81
2021/12/13 04:44:12;;;;;;;59.22;16.73;;;;;;;7.13;100.00;102132.31;4829699;29;20183;-79
2021/12/13 04:46:41;;;;;;;60.95;18.02;;;;;;;7.14;100.00;102134.94;4937771;24;20281;-80
2021/12/13 04:49:10;;;;;;;74.00;18.80;;;;;;;7.13;100.00;102145.63;4876290;29;20193;-80
2021/12/13 04:51:58;;;;;;;74.20;19.00;;;;;;;7.16;100.00;102138.50;4879422;29;20236;-80
2021/12/13 04:54:26;;;;;;;68.65;19.02;;;;;;;7.15;100.00;102149.16;4885051;29;20205;-81
2021/12/13 04:56:54;;;;;;;64.38;17.98;;;;;;;7.13;100.00;102150.97;4867601;29;20230;-81
2021/12/13 04:59:24;;;;;;;75.82;18.63;;;;;;;7.15;100.00;102146.47;4867824;29;20732;-80
2021/12/13 05:01:53;;;;;;;62.78;18.83;;;;;;;7.17;100.00;102152.69;4867865;29;20258;-80
2021/12/13 05:04:21;;;;;;;57.08;16.98;;;;;;;7.18;100.00;102149.16;4867439;29;20602;-80
2021/12/13 05:06:49;;;;;;;54.83;16.20;;;;;;;7.16;100.00;102145.59;4851340;29;20254;-80
2021/12/13 05:09:18;;;;;;;58.08;16.27;;;;;;;7.17;100.00;102145.59;4867775;29;20178;-80
2021/12/13 05:11:45;;;;;;;59.08;16.35;;;;;;;7.16;100.00;102151.81;4867361;29;20578;-80
2021/12/13 05:14:11;;;;;;;49.45;16.02;;;;;;;7.20;100.00;102153.59;4865587;29;20194;-81
2021/12/13 05:16:43;;;;;;;39.70;14.23;;;;;;;7.19;100.00;102153.59;4862642;29;20198;-81
2021/12/13 05:19:11;;;;;;;53.55;15.73;;;;;;;7.19;100.00;102165.16;4864129;29;20194;-80
2021/12/13 05:21:44;;;;;;;49.72;15.40;;;;;;;7.21;100.00;102178.44;4862779;29;20206;-80
2021/12/13 05:24:14;;;;;;;35.28;12.43;;;;;;;7.24;100.00;102173.13;4861016;29;20174;-80
2021/12/13 05:26:43;;;;;;;46.65;14.48;;;;;;;7.22;100.00;102161.59;4864034;29;20197;-80
2021/12/13 05:29:40;;;;;;;43.33;14.50;;;;;;;7.25;100.00;102169.56;4844467;29;20178;-80
2021/12/13 05:32:15;;;;;;;51.97;15.13;;;;;;;7.18;100.00;102168.69;4826035;29;20757;-80
2021/12/13 05:34:55;;;;;;;38.83;13.38;;;;;;;7.21;100.00;102157.13;4827031;29;20194;-80
2021/12/13 05:37:21;;;;;;;50.35;15.52;;;;;;;7.23;100.00;102171.34;4827210;29;20195;-79
2021/12/13 05:40:00;;;;;;;45.22;14.30;;;;;;;7.22;100.00;102166.91;4827620;29;20171;-79
2021/12/13 05:42:43;;;;;;;38.35;13.27;;;;;;;7.23;100.00;102160.69;4828389;29;20332;-79
2021/12/13 05:45:12;;;;;;;35.47;13.65;;;;;;;7.26;100.00;102168.69;4826086;29;20190;-79
2021/12/13 05:47:38;;;;;;;45.42;14.50;;;;;;;7.25;100.00;102171.34;4826345;29;20258;-79
2021/12/13 05:50:07;;;;;;;45.42;15.00;;;;;;;7.23;100.00;102174.88;4827622;29;20636;-79
2021/12/13 05:52:38;;;;;;;31.10;12.63;;;;;;;7.26;100.00;102160.69;4827812;29;20195;-80
2021/12/13 05:55:12;;;;;;;52.88;15.02;;;;;;;7.26;100.00;102179.34;4827802;29;20226;-79
2021/12/13 05:57:44;;;;;;;40.50;14.45;;;;;;;7.29;100.00;102166.00;4826541;29;20186;-79
2021/12/13 06:00:24;;;;;;;38.00;13.88;;;;;;;7.28;100.00;102166.91;4826672;29;20176;-79
2021/12/13 06:03:09;;;;;;;58.67;16.50;;;;;;;7.28;100.00;102174.00;4827071;29;20226;-80
2021/12/13 06:05:42;;;;;;;60.70;17.60;;;;;;;7.27;100.00;102174.91;4825249;29;20187;-79
2021/12/13 06:08:18;;;;;;;57.63;16.83;;;;;;;7.30;100.00;102170.44;4824562;29;20270;-79
2021/12/13 06:10:47;;;;;;;67.90;18.42;;;;;;;7.30;100.00;102181.09;4824118;29;20215;-79
2021/12/13 06:13:42;;;;;;;75.68;18.13;;;;;;;7.27;100.00;102186.44;4825566;29;20179;-80
2021/12/13 06:16:51;;;;;;;73.18;18.40;;;;;;;7.30;100.00;102186.41;4815666;29;20207;-80
2021/12/13 06:19:37;;;;;;;61.55;18.20;;;;;;;7.33;100.00;102190.88;4822472;29;20682;-79
2021/12/13 06:22:08;;;;;;;85.32;20.00;;;;;;;7.30;100.00;102183.75;4831148;29;20199;-80
2021/12/13 06:24:44;;;;;;;68.50;20.10;;;;;;;7.29;100.00;102189.13;4834511;29;20275;-79
2021/12/13 06:27:19;;;;;;;80.63;19.75;;;;;;;7.29;100.00;102186.44;4832914;29;20187;-79
2021/12/13 06:30:07;;;;;;;75.63;19.00;;;;;;;7.31;100.00;102195.34;4833611;29;20370;-80
2021/12/13 06:32:47;;;;;;;67.03;18.67;;;;;;;7.33;100.00;102188.22;4834241;29;20267;-79
2021/12/13 06:35:40;;;;;;;88.07;20.73;;;;;;;7.34;100.00;102198.84;4831896;29;20202;-79
2021/12/13 06:38:36;;;;;;;59.22;18.52;;;;;;;7.34;100.00;102198.84;4830334;29;20645;-79
2021/12/13 06:41:16;;;;;;;76.15;20.35;;;;;;;7.35;100.00;102208.63;4823906;29;20280;-81
2021/12/13 06:44:04;;;;;;;86.45;20.40;;;;;;;7.34;100.00;102213.97;4847424;24;20226;-79
2021/12/13 06:46:41;;;;;;;72.30;19.35;;;;;;;7.33;100.00;102201.53;4839044;29;20244;-80
2021/12/13 06:49:09;;;;;;;79.13;20.67;;;;;;;7.35;100.00;102211.31;4841424;29;20240;-80
2021/12/13 06:51:56;;;;;;;84.63;19.95;;;;;;;7.35;100.00;102219.31;4842413;29;20747;-80
2021/12/13 06:54:32;;;;;;;69.05;19.42;;;;;;;7.39;100.00;102213.09;4842600;29;20183;-80
2021/12/13 06:57:36;;;;;;;68.70;18.95;;;;;;;7.39;100.00;102228.16;4842868;29;20178;-81
2021/12/13 07:00:20;;;;;;;77.28;20.95;;;;;;;7.42;100.00;102228.19;4826852;29;20201;-80
2021/12/13 07:02:50;;;;;;;57.80;18.40;;;;;;;7.43;100.00;102219.28;4842515;29;20289;-80
2021/12/13 07:05:24;;;;;;;56.92;18.52;;;;;;;7.41;100.00;102229.06;4842030;29;20629;-81
2021/12/13 07:07:59;;;;;;;70.03;19.92;;;;;;;7.42;100.00;102231.72;4842498;29;20170;-82
2021/12/13 07:10:33;;;;;;;81.72;20.98;;;;;;;7.44;100.00;102231.72;4841313;29;20219;-80
2021/12/13 07:13:03;;;;;;;65.60;19.63;;;;;;;7.50;100.00;102228.13;4862659;29;20673;-79
2021/12/13 07:15:44;;;;;;;76.38;19.27;;;;;;;7.41;100.00;102240.63;4863990;29;20226;-79
2021/12/13 07:18:15;;;;;;;61.15;18.23;;;;;;;7.49;100.00;102240.59;4864643;29;20181;-79
2021/12/13 07:20:51;;;;;;;62.95;18.27;;;;;;;7.50;100.00;102244.13;4869587;29;20170;-81
2021/12/13 07:23:17;;;;;;;51.03;15.70;;;;;;;7.50;100.00;102245.06;4858014;29;20186;-77
2021/12/13 07:25:45;;;;;;;51.47;15.95;;;;;;;7.49;100.00;102247.72;4863262;29;20241;-79
2021/12/13 07:28:11;;;;;;;46.00;15.40;;;;;;;7.55;100.00;102253.91;4847455;29;20177;-79
2021/12/13 07:30:39;;;;;;;34.45;13.65;;;;;;;7.60;100.00;102244.09;4850940;29;20583;-78
2021/12/13 07:33:08;;;;;;;43.42;14.77;;;;;;;7.57;100.00;102238.78;4843773;29;20186;-79
2021/12/13 07:35:42;;;;;;;38.20;13.32;;;;;;;7.58;100.00;102245.91;4845033;29;20163;-79
2021/12/13 07:38:10;;;;;;;35.58;13.30;;;;;;;7.59;100.00;102247.69;4844000;29;20265;-79
2021/12/13 07:40:44;;;;;;;34.38;13.40;;;;;;;7.59;100.00;102245.03;4840583;29;20179;-79
2021/12/13 07:43:15;;;;;;;38.10;14.63;;;;;;;7.58;100.00;102253.00;4842342;29;20183;-78
2021/12/13 07:45:54;;;;;;;46.67;16.48;;;;;;;7.64;100.00;102256.53;4847398;29;20652;-78
2021/12/13 07:48:31;;;;;;;41.25;16.63;;;;;;;7.61;100.00;102255.69;4846604;29;20178;-82
2021/12/13 07:51:08;;;;;;;44.70;16.48;;;;;;;7.66;100.00;102263.69;4846894;29;20462;-79
2021/12/13 07:53:42;;;;;;;44.70;17.15;;;;;;;7.65;100.00;102249.44;4842294;29;20175;-79
2021/12/13 07:56:12;;;;;;;45.67;17.75;;;;;;;7.68;100.00;102252.09;4845547;29;20206;-79
2021/12/13 07:58:47;;;;;;;44.75;19.30;;;;;;;7.68;100.00;102254.78;4840209;29;20199;-80
2021/12/13 08:01:20;;;;;;;50.90;20.67;;;;;;;7.73;100.00;102260.09;4843820;29;20190;-79
2021/12/13 08:03:53;;;;;;;57.70;26.33;;;;;;;7.75;100.00;102258.31;4842373;29;20181;-79
2021/12/13 08:06:18;;;;;;;50.72;26.38;;;;;;;7.74;100.00;102259.19;4844019;29;20668;-79
2021/12/13 08:08:54;;;;;;;53.03;26.88;;;;;;;7.74;100.00;102261.84;4841470;29;20246;-79
2021/12/13 08:11:35;;;;;;;61.03;29.27;;;;;;;7.78;100.00;102260.94;4842667;29;20205;-78
2021/12/13 08:14:01;;;;;;;41.63;24.33;;;;;;;7.83;100.00;102262.72;4844146;29;20190;-79
2021/12/13 08:16:33;;;;;;;60.20;28.80;;;;;;;7.79;100.00;102271.63;4841458;29;20194;-80
2021/12/13 08:19:14;;;;;;;56.67;25.88;;;;;;;7.82;100.00;102271.59;4844314;29;20167;-79
2021/12/13 08:21:45;;;;;;;66.13;27.85;;;;;;;7.84;100.00;102266.28;4844991;29;20199;-78
2021/12/13 08:24:22;;;;;;;68.03;26.45;;;;;;;7.80;100.00;102265.38;4845954;29;20545;-79
2021/12/13 08:26:58;;;;;;;59.35;25.52;;;;;;;7.84;100.00;102268.94;4843133;29;20676;-80
2021/12/13 08:29:33;;;;;;;62.00;26.40;;;;;;;7.88;100.00;102270.69;4843969;29;20175;-80
2021/12/13 08:32:06;;;;;;;57.05;24.90;;;;;;;7.91;100.00;102288.47;4828632;29;20242;-79
2021/12/13 08:34:47;;;;;;;59.17;25.45;;;;;;;7.94;100.00;102280.47;4846182;29;20244;-80
2021/12/13 08:37:20;;;;;;;73.78;26.85;;;;;;;7.94;100.00;102273.34;4842657;29;20194;-80
2021/12/13 08:39:50;;;;;;;75.55;26.98;;;;;;;7.95;100.00;102269.78;4842691;29;20170;-79
2021/12/13 08:42:21;;;;;;;73.90;27.90;;;;;;;7.94;100.00;102270.69;4842920;29;20672;-80
2021/12/13 08:45:08;;;;;;;69.78;27.45;;;;;;;7.98;100.00;102284.88;4847393;29;20182;-79
2021/12/13 08:47:41;;;;;;;61.38;24.88;;;;;;;7.96;100.00;102286.66;4844245;29;20218;-80
2021/12/13 08:50:13;;;;;;;63.85;26.88;;;;;;;7.97;100.00;102285.78;4841340;29;20210;-80
2021/12/13 08:52:42;;;;;;;62.85;25.80;;;;;;;8.02;100.00;102287.56;4844296;29;20227;-79
2021/12/13 08:55:21;;;;;;;65.75;26.70;;;;;;;8.01;100.00;102272.44;4846417;29;20281;-80
2021/12/13 08:58:07;;;;;;;70.88;27.67;;;;;;;8.03;100.00;102281.31;4832113;29;20167;-80
2021/12/13 09:00:59;;;;;;;65.65;26.77;;;;;;;8.07;100.00;102292.88;4845642;29;20278;-79
2021/12/13 09:03:34;;;;;;;70.00;27.73;;;;;;;8.07;100.00;102292.88;4850267;29;20179;-79
2021/12/13 09:06:11;;;;;;;71.53;28.08;;;;;;;8.06;100.00;102296.41;4848096;29;20197;-80
2021/12/13 09:08:39;;;;;;;63.83;27.88;;;;;;;8.08;100.00;102297.31;4845095;29;20770;-80
2021/12/13 09:11:20;;;;;;;67.35;27.08;;;;;;;8.09;100.00;102295.50;4850418;29;20600;-79
2021/12/13 09:13:58;;;;;;;60.78;27.15;;;;;;;8.11;100.00;102289.31;4829130;29;20270;-80
2021/12/13 09:17:23;;;;;;;70.88;26.58;;;;;;;8.16;100.00;102294.63;4844697;29;20277;-80
2021/12/13 09:19:47;;;;;;;71.88;27.15;;;;;;;8.20;100.00;102297.25;4836995;29;20183;-80
2021/12/13 09:22:33;;;;;;;52.45;24.77;;;;;;;8.23;100.00;102304.38;4829864;29;20218;-79
2021/12/13 09:25:14;;;;;;;63.80;27.05;;;;;;;8.24;100.00;102304.38;4845699;29;20175;-79
2021/12/13 09:27:54;;;;;;;61.25;25.52;;;;;;;8.22;100.00;102303.50;4845468;29;20190;-80
2021/12/13 09:30:38;;;;;;;56.53;25.20;;;;;;;8.27;100.00;102290.09;4832962;29;20225;-81
2021/12/13 09:33:13;;;;;;;57.67;25.70;;;;;;;8.29;100.00;102300.75;4835290;29;20179;-79
2021/12/13 09:35:46;;;;;;;54.15;26.08;;;;;;;8.33;100.00;102300.75;4833801;29;20178;-79
2021/12/13 09:38:17;;;;;;;66.60;27.90;;;;;;;8.35;100.00;102300.72;4830294;29;20184;-80
2021/12/13 09:40:46;;;;;;;66.13;27.92;;;;;;;8.40;100.00;102301.63;4827448;29;20638;-80
2021/12/13 09:43:11;;;;;;;71.13;29.20;;;;;;;8.39;100.00;102310.50;4825810;29;20242;-81
2021/12/13 09:45:47;;;;;;;67.85;28.38;;;;;;;8.40;100.00;102304.28;4825548;29;20172;-81
2021/12/13 09:48:28;;;;;;;62.65;27.00;;;;;;;8.43;100.00;102302.50;4826168;29;20574;-80
2021/12/13 09:51:09;;;;;;;62.38;26.27;;;;;;;8.40;100.00;102291.84;4826068;29;20685;-81
2021/12/13 09:53:38;;;;;;;56.95;25.90;;;;;;;8.43;100.00;102312.31;4826077;29;20260;-80
2021/12/13 09:56:08;;;;;;;49.20;23.65;;;;;;;8.53;100.00;102316.72;4826231;29;20654;-80
2021/12/13 09:58:59;;;;;;;56.28;25.15;;;;;;;8.53;100.00;102318.50;4861247;29;20205;-80
2021/12/13 10:01:37;;;;;;;51.95;23.08;;;;;;;8.53;100.00;102310.47;4825532;29;20222;-80
2021/12/13 10:04:24;;;;;;;58.45;24.45;;;;;;;8.51;100.00;102320.28;4835055;29;20184;-80
2021/12/13 10:06:54;;;;;;;56.42;23.90;;;;;;;8.48;100.00;102306.94;4837784;29;20269;-80
2021/12/13 10:09:27;;;;;;;55.38;23.13;;;;;;;8.49;100.00;102312.28;4843064;29;20239;-80
2021/12/13 10:11:58;;;;;;;53.20;22.52;;;;;;;8.49;100.00;102298.91;4828695;29;20231;-79
2021/12/13 10:14:34;;;;;;;47.42;21.80;;;;;;;8.51;100.00;102301.59;4829793;29;20195;-79
2021/12/13 10:17:01;;;;;;;46.70;22.15;;;;;;;8.49;100.00;102296.25;4829470;29;20207;-82
2021/12/13 10:19:38;;;;;;;36.60;20.05;;;;;;;8.54;100.00;102299.75;4838070;29;20182;-81
2021/12/13 10:22:06;;;;;;;46.78;21.55;;;;;;;8.49;100.00;102292.69;4843700;29;20586;-82
2021/12/13 10:24:35;;;;;;;40.67;21.13;;;;;;;8.48;100.00;102285.56;4843131;29;20641;-82
2021/12/13 10:27:04;;;;;;;39.80;19.98;;;;;;;8.46;100.00;102290.91;4845789;29;20363;-79
2021/12/13 10:29:30;;;;;;;41.83;20.02;;;;;;;8.49;100.00;102285.56;4843602;29;20185;-80
2021/12/13 10:32:06;;;;;;;34.20;19.67;;;;;;;8.51;100.00;102299.81;4844355;29;20226;-80
2021/12/13 10:34:34;;;;;;;36.60;19.60;;;;;;;8.48;100.00;102288.22;4843296;29;20545;-80
2021/12/13 10:37:10;;;;;;;40.10;20.63;;;;;;;8.45;100.00;102297.16;4827243;29;20271;-80
2021/12/13 10:39:41;;;;;;;33.33;19.17;;;;;;;8.43;100.00;102301.63;4824883;29;20194;-79
2021/12/13 10:42:20;;;;;;;35.85;19.55;;;;;;;8.44;100.00;102298.94;4825300;29;20638;-80
2021/12/13 10:44:46;;;;;;;34.28;19.17;;;;;;;8.48;100.00;102289.13;4855614;29;20193;-80
2021/12/13 10:47:27;;;;;;;34.53;18.88;;;;;;;8.49;100.00;102284.69;4859395;29;20196;-80
2021/12/13 10:49:53;;;;;;;38.33;18.85;;;;;;;8.44;100.00;102277.59;4846491;29;20210;-82
2021/12/13 10:52:36;;;;;;;32.08;18.58;;;;;;;8.48;100.00;102293.56;4859275;29;20643;-81
2021/12/13 10:55:16;;;;;;;33.60;18.67;;;;;;;8.49;100.00;102290.91;4859087;29;20199;-81
2021/12/13 10:57:48;;;;;;;28.08;18.10;;;;;;;8.54;100.00;102294.44;4860827;29;20185;-81
2021/12/13 11:00:31;;;;;;;29.85;17.40;;;;;;;8.51;100.00;102289.13;4859447;29;20266;-79
2021/12/13 11:03:01;;;;;;;34.83;18.92;;;;;;;8.51;100.00;102291.78;4858942;29;20238;-80
2021/12/13 11:05:28;;;;;;;29.10;17.83;;;;;;;8.52;100.00;102288.19;4861806;29;20181;-80
2021/12/13 11:07:55;;;;;;;29.50;16.77;;;;;;;8.48;100.00;102289.13;4860087;29;20186;-80
2021/12/13 11:10:27;;;;;;;27.38;17.42;;;;;;;8.56;100.00;102294.44;4852078;29;20202;-79
2021/12/13 11:12:55;;;;;;;25.05;16.88;;;;;;;8.54;100.00;102290.88;4842588;29;20230;-81
2021/12/13 11:15:28;;;;;;;29.35;16.90;;;;;;;8.51;100.00;102289.13;4842796;29;20251;-81
2021/12/13 11:17:55;;;;;;;26.65;17.58;;;;;;;8.53;100.00;102284.66;4841615;29;20773;-80
2021/12/13 11:20:27;;;;;;;25.40;16.25;;;;;;;8.57;100.00;102289.09;4841938;29;20667;-79
2021/12/13 11:22:54;;;;;;;24.10;16.15;;;;;;;8.56;100.00;102284.63;4842603;29;20190;-79
2021/12/13 11:25:24;;;;;;;23.58;15.60;;;;;;;8.68;100.00;102833.22;4827404;29;20195;-79
2021/12/13 11:27:50;;;;;;;20.77;16.00;;;;;;;8.59;100.00;102533.06;4843653;29;20178;-81
2021/12/13 11:30:22;;;;;;;21.65;14.90;;;;;;;8.55;100.00;102458.25;4849692;29;20207;-79
2021/12/13 11:32:56;;;;;;;25.63;14.77;;;;;;;8.60;100.00;102449.34;4847517;29;20199;-78
2021/12/13 11:35:59;;;;;;;21.48;15.32;;;;;;;8.61;100.00;102447.56;4847143;29;20206;-79
2021/12/13 11:39:02;;;;;;;22.48;15.07;;;;;;;8.64;100.00;102428.88;4826586;29;20186;-80
2021/12/13 11:41:37;;;;;;;20.85;14.35;;;;;;;8.70;100.00;102425.25;4843889;29;20246;-80
2021/12/13 11:44:06;;;;;;;19.27;13.73;;;;;;;8.62;100.00;102404.81;4842958;29;20182;-80
2021/12/13 11:46:57;;;;;;;20.52;13.60;;;;;;;8.68;100.00;102411.94;4842876;29;20190;-80
2021/12/13 11:49:32;;;;;;;20.88;13.73;;;;;;;8.62;100.00;102399.47;4834676;29;20187;-80
2021/12/13 11:52:10;;;;;;;18.75;13.02;;;;;;;8.61;100.00;102402.13;4842787;29;20205;-80
2021/12/13 11:55:19;;;;;;;21.15;13.25;;;;;;;8.62;100.00;102404.81;4845556;29;20171;-79